Time;durP1;ratioP1;P1;durP2;ratioP2;P2;SDS_P1;SDS_P2;PMS_P1;PMS_P2;Temp;Humidity;BMP_temperature;BMP_pressure;BME280_temperature;BME280_humidity;BME280_pressure;Samples;Min_cycle;Max_cycle;Signal;HPM_P1;HPM_P2
2022/07/19 00:00:08;;;;;;;2.65;0.90;;;;;;;19.29;40.40;99340.22;4485881;32;20085;-71
2022/07/19 00:02:38;;;;;;;7.32;0.90;;;;;;;19.29;40.38;99326.94;4485899;31;20192;-71
2022/07/19 00:05:07;;;;;;;1.58;0.90;;;;;;;19.36;40.36;99335.00;4485738;31;20092;-71
2022/07/19 00:07:35;;;;;;;1.10;0.73;;;;;;;19.40;40.16;99330.19;4485885;31;20092;-71
2022/07/19 00:10:05;;;;;;;1.80;0.70;;;;;;;19.37;40.28;99336.66;4485756;31;20119;-70
2022/07/19 00:12:32;;;;;;;2.67;0.70;;;;;;;19.37;40.46;99330.53;4485978;31;20495;-70
2022/07/19 00:14:59;;;;;;;2.83;0.93;;;;;;;19.35;40.45;99335.19;4485873;31;20089;-70
2022/07/19 00:17:26;;;;;;;1.45;0.70;;;;;;;19.26;40.57;99337.94;4485437;31;20147;-70
2022/07/19 00:19:53;;;;;;;1.50;0.80;;;;;;;19.16;40.75;99334.69;4485908;31;20083;-70
2022/07/19 00:22:20;;;;;;;4.35;1.42;;;;;;;19.11;40.95;99329.09;4485724;32;20089;-70
2022/07/19 00:24:48;;;;;;;2.15;0.95;;;;;;;19.09;41.01;99328.44;4485703;31;20088;-70
2022/07/19 00:27:15;;;;;;;4.75;0.80;;;;;;;19.07;41.07;99330.44;4485673;31;20586;-70
2022/07/19 00:29:42;;;;;;;5.30;0.70;;;;;;;19.07;40.89;99330.44;4485674;31;20106;-70
2022/07/19 00:32:09;;;;;;;2.42;0.93;;;;;;;19.13;40.61;99329.72;4485997;31;20093;-71
2022/07/19 00:34:36;;;;;;;1.75;0.60;;;;;;;19.23;40.54;99332.97;4486036;31;20123;-70
2022/07/19 00:37:04;;;;;;;4.05;0.88;;;;;;;19.25;40.32;99333.59;4485780;31;20161;-70
2022/07/19 00:39:31;;;;;;;0.50;0.50;;;;;;;19.28;40.24;99327.94;4485698;31;20107;-71
2022/07/19 00:41:58;;;;;;;1.98;0.80;;;;;;;19.12;40.85;99333.38;4485642;31;20115;-70
2022/07/19 00:44:25;;;;;;;0.93;0.62;;;;;;;18.93;40.99;99324.09;4485897;31;20100;-70
2022/07/19 00:46:53;;;;;;;1.52;0.70;;;;;;;18.90;41.18;99319.94;4485770;31;20093;-70
2022/07/19 00:49:20;;;;;;;4.25;0.85;;;;;;;18.84;41.32;99331.25;4485741;31;20385;-71
2022/07/19 00:51:52;;;;;;;4.35;0.70;;;;;;;18.88;41.09;99329.94;4485060;32;20469;-70
2022/07/19 00:54:21;;;;;;;0.95;0.57;;;;;;;18.85;41.07;99324.97;4485584;32;20105;-70
2022/07/19 00:56:49;;;;;;;1.00;0.60;;;;;;;18.89;40.72;99323.59;4471382;32;20108;-71
2022/07/19 00:59:18;;;;;;;2.37;0.65;;;;;;;18.99;40.29;99326.03;4485683;31;20235;-71
2022/07/19 01:01:46;;;;;;;1.58;0.70;;;;;;;19.08;39.91;99327.63;4485487;32;20108;-70
2022/07/19 01:04:13;;;;;;;2.65;0.77;;;;;;;19.09;39.91;99321.31;4485513;31;20085;-70
2022/07/19 01:06:41;;;;;;;1.27;0.65;;;;;;;19.13;39.69;99327.06;4485387;31;20096;-70
2022/07/19 01:09:08;;;;;;;2.60;0.60;;;;;;;18.97;40.12;99326.22;4485444;31;20084;-71
2022/07/19 01:11:36;;;;;;;1.50;0.90;;;;;;;18.83;40.42;99316.31;4485766;31;20102;-70
2022/07/19 01:14:03;;;;;;;1.80;0.95;;;;;;;18.74;40.79;99317.38;4484323;32;20101;-71
2022/07/19 01:16:31;;;;;;;5.25;0.90;;;;;;;18.58;42.16;99313.84;4485390;31;20096;-71
2022/07/19 01:18:58;;;;;;;2.35;0.70;;;;;;;18.40;42.85;99318.59;4485110;31;20428;-70
2022/07/19 01:21:26;;;;;;;0.80;0.70;;;;;;;18.07;43.79;99326.69;4485352;31;20153;-70
2022/07/19 01:23:53;;;;;;;1.33;0.40;;;;;;;17.91;44.27;99317.81;4485353;31;20143;-70
2022/07/19 01:26:20;;;;;;;0.90;0.52;;;;;;;17.80;44.58;99326.06;4485304;31;20093;-70
2022/07/19 01:28:47;;;;;;;1.50;0.70;;;;;;;17.74;44.68;99318.81;4485243;31;20499;-70
2022/07/19 01:31:15;;;;;;;1.45;0.60;;;;;;;17.71;44.46;99325.31;4485323;32;20080;-70
2022/07/19 01:33:44;;;;;;;1.80;0.82;;;;;;;17.75;44.38;99320.47;4485228;32;20116;-71
2022/07/19 01:36:11;;;;;;;4.50;0.73;;;;;;;17.76;44.24;99321.28;4485307;31;20096;-70
2022/07/19 01:38:39;;;;;;;2.55;0.80;;;;;;;17.82;43.97;99313.50;4485199;32;20148;-71
2022/07/19 01:41:07;;;;;;;1.58;0.73;;;;;;;17.80;44.08;99312.81;4485335;31;20088;-70
2022/07/19 01:43:34;;;;;;;7.82;1.27;;;;;;;17.84;43.89;99313.34;4485220;31;20088;-71
2022/07/19 01:46:02;;;;;;;1.17;0.68;;;;;;;17.84;43.76;99314.16;4484117;32;20446;-70
2022/07/19 01:48:30;;;;;;;1.15;0.82;;;;;;;17.86;43.70;99306.03;4484958;31;20553;-70
2022/07/19 01:50:58;;;;;;;1.02;0.65;;;;;;;17.87;43.55;99310.34;4484965;31;20155;-70
2022/07/19 01:53:25;;;;;;;1.60;0.80;;;;;;;17.95;43.28;99301.56;4485096;31;20092;-71
2022/07/19 01:55:52;;;;;;;1.92;0.80;;;;;;;18.01;43.05;99304.34;4485298;32;20093;-70
2022/07/19 01:58:20;;;;;;;2.40;0.60;;;;;;;17.98;42.95;99301.22;4485409;31;20441;-70
2022/07/19 02:00:48;;;;;;;2.85;0.60;;;;;;;17.95;43.54;99304.22;4485135;31;20481;-71
2022/07/19 02:03:16;;;;;;;1.98;0.98;;;;;;;17.90;43.33;99308.19;4484990;31;20089;-70
2022/07/19 02:05:43;;;;;;;2.47;0.95;;;;;;;17.81;44.93;99313.69;4485079;31;20103;-70
2022/07/19 02:08:13;;;;;;;1.30;0.73;;;;;;;17.66;45.20;99311.72;4485094;31;20087;-70
2022/07/19 02:10:40;;;;;;;2.20;0.80;;;;;;;17.60;44.62;99311.56;4484965;31;20117;-71
2022/07/19 02:13:07;;;;;;;5.00;0.60;;;;;;;17.60;44.26;99307.09;4485043;31;20085;-70
2022/07/19 02:15:34;;;;;;;3.45;0.82;;;;;;;17.68;44.21;99308.91;4485061;31;20069;-70
2022/07/19 02:18:02;;;;;;;1.87;0.73;;;;;;;17.65;44.69;99309.22;4484663;31;20096;-70
2022/07/19 02:20:29;;;;;;;1.48;0.80;;;;;;;17.68;44.58;99311.53;4484967;31;20092;-71
2022/07/19 02:22:58;;;;;;;3.08;1.33;;;;;;;17.58;45.40;99311.75;4485108;31;20627;-70
2022/07/19 02:25:26;;;;;;;2.20;0.85;;;;;;;17.48;44.55;99311.91;4484900;31;20084;-70
2022/07/19 02:27:53;;;;;;;1.80;0.80;;;;;;;17.41;44.79;99313.59;4485036;31;20122;-70
2022/07/19 02:30:20;;;;;;;0.88;0.73;;;;;;;17.38;44.72;99324.50;4484885;32;20088;-70
2022/07/19 02:32:48;;;;;;;2.20;0.80;;;;;;;17.46;44.17;99313.09;4484870;32;20446;-70
2022/07/19 02:35:16;;;;;;;2.85;0.85;;;;;;;17.40;45.12;99316.41;4484866;31;20151;-70
2022/07/19 02:37:43;;;;;;;2.85;1.00;;;;;;;17.30;45.46;99328.00;4485094;31;20092;-71
2022/07/19 02:40:11;;;;;;;7.35;1.00;;;;;;;17.23;45.55;99321.72;4484732;31;20107;-70
2022/07/19 02:42:38;;;;;;;3.17;0.90;;;;;;;17.16;45.74;99320.72;4484748;31;20119;-70
2022/07/19 02:45:06;;;;;;;1.20;0.77;;;;;;;17.18;45.33;99322.22;4484713;31;20119;-70
2022/07/19 02:47:33;;;;;;;1.90;0.90;;;;;;;17.19;45.39;99320.41;4484164;32;20510;-70
2022/07/19 02:50:00;;;;;;;1.00;0.82;;;;;;;17.13;46.50;99318.41;4484494;32;20077;-70
2022/07/19 02:52:29;;;;;;;0.93;0.68;;;;;;;17.05;45.88;99318.41;4484506;32;20161;-70
2022/07/19 02:54:57;;;;;;;3.15;1.08;;;;;;;17.05;45.61;99321.91;4484477;31;20100;-70
2022/07/19 02:57:24;;;;;;;3.55;1.08;;;;;;;16.99;45.99;99318.09;4484536;32;20088;-70
2022/07/19 02:59:51;;;;;;;1.10;0.60;;;;;;;16.87;47.20;99321.22;4484244;32;20119;-71
2022/07/19 03:02:18;;;;;;;7.82;1.65;;;;;;;16.74;47.54;99317.19;4484499;31;20160;-71
2022/07/19 03:04:46;;;;;;;2.92;0.90;;;;;;;16.59;48.45;99324.94;4484256;31;20143;-70
2022/07/19 03:07:13;;;;;;;3.17;0.80;;;;;;;16.47;49.52;99327.06;4484459;31;20477;-70
2022/07/19 03:09:41;;;;;;;3.05;0.90;;;;;;;16.33;50.97;99317.09;4484165;32;20101;-71
2022/07/19 03:12:08;;;;;;;6.45;0.90;;;;;;;16.22;51.58;99320.88;4484257;31;20092;-70
2022/07/19 03:14:35;;;;;;;1.30;0.80;;;;;;;16.19;51.82;99334.41;4484195;31;20134;-71
2022/07/19 03:17:02;;;;;;;0.90;0.60;;;;;;;16.13;51.86;99320.00;4486086;32;20088;-71
2022/07/19 03:19:30;;;;;;;4.82;0.82;;;;;;;16.05;52.60;99321.78;4486106;31;20152;-70
2022/07/19 03:21:57;;;;;;;2.25;0.80;;;;;;;16.01;52.15;99326.56;4486141;31;20464;-71
2022/07/19 03:24:24;;;;;;;0.70;0.60;;;;;;;16.00;52.53;99330.19;4486049;31;20122;-71
2022/07/19 03:26:51;;;;;;;1.45;0.90;;;;;;;16.00;52.24;99329.38;4486123;31;20100;-70
2022/07/19 03:29:18;;;;;;;1.55;0.80;;;;;;;16.06;52.53;99334.03;4486002;32;20110;-70
2022/07/19 03:31:51;;;;;;;7.62;0.80;;;;;;;16.11;52.30;99337.03;4486212;32;20135;-71
2022/07/19 03:34:19;;;;;;;4.35;1.02;;;;;;;16.22;51.55;99334.09;4486161;31;20149;-71
2022/07/19 03:36:46;;;;;;;6.85;0.88;;;;;;;16.40;50.10;99335.81;4486045;31;20153;-71
2022/07/19 03:39:13;;;;;;;1.10;0.77;;;;;;;16.55;50.14;99341.28;4486147;32;20100;-70
2022/07/19 03:41:40;;;;;;;3.78;0.93;;;;;;;16.70;50.03;99342.34;4485919;31;20088;-70
2022/07/19 03:44:07;;;;;;;1.35;0.70;;;;;;;16.77;50.95;99348.62;4485905;31;20096;-70
2022/07/19 03:46:35;;;;;;;7.43;2.15;;;;;;;16.90;46.73;99342.88;4485817;31;20119;-70
2022/07/19 03:49:02;;;;;;;2.65;0.82;;;;;;;17.12;48.47;99346.72;4485705;32;20084;-70
2022/07/19 03:51:29;;;;;;;1.10;0.80;;;;;;;17.26;46.09;99345.22;4485902;31;20537;-70
2022/07/19 03:53:57;;;;;;;2.00;0.77;;;;;;;17.52;47.67;99346.88;4485920;32;20088;-70
2022/07/19 03:56:24;;;;;;;1.42;0.75;;;;;;;17.59;47.86;99349.66;4485876;31;20088;-70
2022/07/19 03:58:51;;;;;;;0.82;0.62;;;;;;;17.66;48.70;99355.94;4485886;32;20153;-70
2022/07/19 04:01:18;;;;;;;2.83;0.80;;;;;;;17.71;49.24;99356.25;4485826;32;20096;-70
2022/07/19 04:03:50;;;;;;;2.03;0.80;;;;;;;17.75;49.50;99362.88;4486013;31;20522;-70
2022/07/19 04:06:17;;;;;;;1.80;0.77;;;;;;;17.79;49.46;99366.84;4485700;31;20096;-70
2022/07/19 04:08:44;;;;;;;3.42;0.60;;;;;;;17.85;46.38;99358.22;4485854;31;20084;-70
2022/07/19 04:11:12;;;;;;;2.50;0.80;;;;;;;18.00;47.61;99361.03;4485781;32;20596;-71
2022/07/19 04:13:39;;;;;;;2.47;1.33;;;;;;;18.13;46.07;99371.09;4485739;32;20137;-71
2022/07/19 04:16:06;;;;;;;4.97;1.30;;;;;;;18.31;45.98;99364.72;4485808;32;20152;-71
2022/07/19 04:18:34;;;;;;;2.35;0.85;;;;;;;18.48;45.01;99362.81;4485544;31;20134;-70
2022/07/19 04:21:01;;;;;;;2.17;0.60;;;;;;;18.65;44.30;99358.25;4485673;32;20092;-71
2022/07/19 04:23:28;;;;;;;3.10;0.70;;;;;;;18.90;43.31;99366.91;4485705;31;20088;-71
2022/07/19 04:25:56;;;;;;;2.58;0.75;;;;;;;19.08;44.35;99378.06;4485524;32;20421;-71
2022/07/19 04:28:24;;;;;;;2.42;0.80;;;;;;;19.22;44.51;99373.81;4485181;31;20157;-71
2022/07/19 04:30:51;;;;;;;0.62;0.60;;;;;;;19.39;44.19;99366.53;4485452;31;20096;-71
2022/07/19 04:33:19;;;;;;;1.12;0.77;;;;;;;19.59;43.71;99379.31;4485751;31;20093;-71
2022/07/19 04:35:46;;;;;;;3.22;0.70;;;;;;;19.78;42.92;99380.66;4485611;31;20088;-70
2022/07/19 04:38:13;;;;;;;2.62;0.70;;;;;;;19.96;42.02;99381.13;4485936;31;20141;-71
2022/07/19 04:40:41;;;;;;;5.43;1.15;;;;;;;20.16;41.46;99372.59;4485849;32;20093;-70
2022/07/19 04:43:08;;;;;;;5.25;0.85;;;;;;;20.37;40.54;99380.66;4485709;32;20126;-71
2022/07/19 04:45:35;;;;;;;1.05;0.73;;;;;;;20.54;40.42;99383.09;4485565;31;20110;-70
2022/07/19 04:48:03;;;;;;;1.55;0.70;;;;;;;20.76;40.14;99378.69;4485303;32;20108;-71
2022/07/19 04:50:30;;;;;;;3.92;0.82;;;;;;;20.92;39.56;99374.94;4485545;31;20109;-71
2022/07/19 04:52:57;;;;;;;5.28;1.12;;;;;;;21.13;39.90;99375.97;4485765;31;20100;-71
2022/07/19 04:55:24;;;;;;;5.72;1.00;;;;;;;21.42;39.95;99373.16;4485536;32;20100;-71
2022/07/19 04:57:52;;;;;;;3.42;0.85;;;;;;;21.58;39.66;99373.94;4485497;31;20104;-71
2022/07/19 05:00:19;;;;;;;5.90;0.90;;;;;;;21.79;37.99;99365.84;4485578;32;20104;-71
2022/07/19 05:02:46;;;;;;;3.20;0.82;;;;;;;21.97;37.97;99361.88;4485540;31;20157;-71
2022/07/19 05:05:14;;;;;;;6.43;0.95;;;;;;;22.15;36.57;99361.34;4485410;31;20104;-71
2022/07/19 05:07:41;;;;;;;2.97;0.93;;;;;;;22.38;36.84;99370.91;4485538;31;20144;-71
2022/07/19 05:10:09;;;;;;;4.30;0.88;;;;;;;22.63;36.81;99373.88;4485519;31;20110;-71
2022/07/19 05:12:36;;;;;;;6.40;1.02;;;;;;;22.83;35.91;99371.25;4485455;31;20152;-71
2022/07/19 05:15:05;;;;;;;3.95;1.00;;;;;;;23.08;35.08;99376.03;4485371;32;20169;-71
2022/07/19 05:17:39;;;;;;;5.70;1.10;;;;;;;23.08;34.38;99376.03;4485271;31;20467;-71
2022/07/19 05:20:06;;;;;;;1.77;1.37;;;;;;;23.12;34.67;99375.47;4485339;31;20084;-71
2022/07/19 05:22:33;;;;;;;3.17;0.90;;;;;;;23.13;34.08;99368.25;4485554;31;20100;-71
2022/07/19 05:25:01;;;;;;;3.20;0.90;;;;;;;23.16;34.68;99376.69;4485353;32;20125;-71
2022/07/19 05:27:28;;;;;;;6.22;1.35;;;;;;;23.35;34.08;99374.25;4485103;32;20435;-71
2022/07/19 05:29:55;;;;;;;4.25;1.60;;;;;;;23.55;34.43;99372.38;4485265;32;20088;-71
2022/07/19 05:32:22;;;;;;;2.53;1.37;;;;;;;23.73;34.54;99373.59;4485452;31;20097;-71
2022/07/19 05:34:49;;;;;;;4.45;1.27;;;;;;;23.97;35.65;99380.19;4485248;31;20088;-71
2022/07/19 05:37:16;;;;;;;6.72;1.10;;;;;;;24.14;34.46;99377.03;4485358;32;20114;-71
2022/07/19 05:39:44;;;;;;;4.15;1.05;;;;;;;24.25;33.17;99374.53;4484897;32;20113;-71
2022/07/19 05:42:11;;;;;;;7.78;1.48;;;;;;;24.31;32.24;99372.03;4485294;32;20089;-71
2022/07/19 05:44:38;;;;;;;6.35;1.15;;;;;;;24.47;32.51;99374.25;4485179;32;20108;-71
2022/07/19 05:47:06;;;;;;;4.30;1.05;;;;;;;24.70;33.44;99376.41;4484891;31;20529;-71
2022/07/19 05:49:33;;;;;;;4.85;1.02;;;;;;;24.75;32.13;99373.09;4485068;31;20106;-71
2022/07/19 05:52:00;;;;;;;4.60;1.10;;;;;;;24.80;31.41;99378.66;4485030;32;20157;-71
2022/07/19 05:54:27;;;;;;;9.85;1.60;;;;;;;24.93;32.01;99373.19;4485137;32;20092;-71
2022/07/19 05:56:55;;;;;;;1.45;1.10;;;;;;;25.10;31.82;99359.25;4484991;31;20205;-71
2022/07/19 05:59:22;;;;;;;2.12;1.10;;;;;;;25.14;31.30;99361.28;4485143;31;20092;-71
2022/07/19 06:01:49;;;;;;;6.28;1.37;;;;;;;25.06;30.90;99366.09;4469187;32;20088;-71
2022/07/19 06:04:17;;;;;;;5.00;1.45;;;;;;;25.21;32.53;99374.66;4469737;32;20104;-71
2022/07/19 06:06:44;;;;;;;7.95;1.70;;;;;;;25.32;32.38;99365.09;4484464;32;20092;-71
2022/07/19 06:09:12;;;;;;;4.15;1.17;;;;;;;25.53;32.66;99365.75;4484985;32;20138;-71
2022/07/19 06:11:40;;;;;;;12.60;1.40;;;;;;;25.64;31.17;99370.41;4484955;32;20100;-71
2022/07/19 06:14:12;;;;;;;5.22;1.42;;;;;;;25.67;32.08;99370.75;4484902;32;20108;-71
2022/07/19 06:16:40;;;;;;;11.35;1.60;;;;;;;25.82;32.43;99374.97;4484761;31;20076;-71
2022/07/19 06:19:08;;;;;;;11.27;1.70;;;;;;;25.92;31.84;99374.44;4484663;31;20096;-71
2022/07/19 06:21:35;;;;;;;9.73;1.33;;;;;;;25.97;32.21;99375.44;4484875;31;20101;-71
2022/07/19 06:24:03;;;;;;;14.50;1.40;;;;;;;26.02;31.71;99374.78;4484858;32;20155;-71
2022/07/19 06:26:30;;;;;;;13.18;1.35;;;;;;;26.09;31.95;99375.53;4484516;31;20483;-71
2022/07/19 06:28:57;;;;;;;14.00;1.50;;;;;;;26.23;32.45;99370.84;4484756;32;20165;-71
2022/07/19 06:31:25;;;;;;;13.85;1.40;;;;;;;26.20;32.22;99376.66;4484861;31;20084;-71
2022/07/19 06:33:52;;;;;;;6.45;1.40;;;;;;;26.12;31.49;99385.03;4484659;32;20161;-71
2022/07/19 06:36:20;;;;;;;9.07;1.60;;;;;;;26.13;31.70;99379.44;4483619;32;20092;-71
2022/07/19 06:38:47;;;;;;;11.43;1.40;;;;;;;26.20;31.21;99376.66;4484902;31;20097;-71
2022/07/19 06:41:15;;;;;;;8.43;2.65;;;;;;;26.12;30.93;99380.47;4484747;31;20092;-71
2022/07/19 06:44:02;;;;;;;12.88;1.80;;;;;;;26.15;31.33;99384.56;4484527;32;20775;-71
2022/07/19 06:46:29;;;;;;;13.88;1.58;;;;;;;26.24;32.09;99385.91;4484503;31;20563;-71
2022/07/19 06:48:56;;;;;;;9.07;1.35;;;;;;;26.42;31.30;99385.09;4484325;31;20138;-71
2022/07/19 06:51:23;;;;;;;7.15;1.60;;;;;;;26.52;31.76;99381.84;4483826;32;20442;-71
2022/07/19 06:53:51;;;;;;;14.52;2.05;;;;;;;26.79;31.52;99382.34;4484527;32;20093;-71
2022/07/19 06:56:18;;;;;;;9.10;1.20;;;;;;;26.73;31.46;99384.06;4484404;32;20095;-71
2022/07/19 06:58:46;;;;;;;8.70;2.35;;;;;;;26.81;31.78;99382.91;4484272;31;20104;-71
2022/07/19 07:01:13;;;;;;;8.52;1.87;;;;;;;26.98;31.77;99383.13;4484574;31;20540;-71
2022/07/19 07:03:41;;;;;;;10.48;1.20;;;;;;;27.09;31.48;99378.81;4484347;31;20081;-71
2022/07/19 07:06:08;;;;;;;12.18;1.65;;;;;;;27.00;30.80;99378.31;4484320;31;20100;-71
2022/07/19 07:08:35;;;;;;;6.40;1.33;;;;;;;27.09;31.42;99379.62;4484235;31;20397;-71
2022/07/19 07:11:02;;;;;;;8.55;1.25;;;;;;;26.92;30.19;99376.78;4484265;32;20084;-71
2022/07/19 07:13:30;;;;;;;8.77;1.40;;;;;;;26.92;30.01;99378.66;4484262;31;20108;-71
2022/07/19 07:15:57;;;;;;;4.25;1.08;;;;;;;26.86;30.16;99369.63;4483921;31;20141;-71
2022/07/19 07:18:24;;;;;;;9.07;1.67;;;;;;;26.99;29.93;99379.34;4483839;32;20161;-71
2022/07/19 07:20:51;;;;;;;13.07;1.70;;;;;;;27.14;30.35;99372.75;4484108;32;20183;-71
2022/07/19 07:23:19;;;;;;;9.55;1.62;;;;;;;27.34;30.67;99370.56;4483901;32;20096;-71
2022/07/19 07:25:46;;;;;;;12.48;1.62;;;;;;;27.69;31.30;99363.56;4483823;32;20438;-71
2022/07/19 07:28:13;;;;;;;13.25;1.83;;;;;;;27.93;31.48;99367.06;4483877;31;20119;-71
2022/07/19 07:30:41;;;;;;;8.50;1.67;;;;;;;27.76;31.68;99367.75;4483912;32;20127;-71
2022/07/19 07:33:08;;;;;;;11.60;2.60;;;;;;;27.95;32.56;99368.47;4483772;31;20172;-71
2022/07/19 07:35:35;;;;;;;9.23;1.95;;;;;;;27.64;30.21;99364.25;4483814;32;20495;-71
2022/07/19 07:38:02;;;;;;;8.18;1.33;;;;;;;27.86;30.39;99371.72;4483694;32;20093;-71
2022/07/19 07:40:30;;;;;;;11.15;1.40;;;;;;;28.13;29.92;99359.44;4484140;32;20097;-71
2022/07/19 07:42:57;;;;;;;10.68;1.65;;;;;;;28.24;30.05;99365.03;4483873;32;20088;-71
2022/07/19 07:45:24;;;;;;;5.40;1.30;;;;;;;28.38;28.95;99363.69;4483763;31;20099;-71
2022/07/19 07:47:51;;;;;;;6.25;1.17;;;;;;;28.29;29.58;99355.16;4483183;31;20151;-71
2022/07/19 07:50:19;;;;;;;2.83;1.30;;;;;;;28.49;27.84;99360.16;4483486;32;20100;-71
2022/07/19 07:52:46;;;;;;;8.68;1.80;;;;;;;28.72;30.11;99365.69;4483531;31;20390;-71
2022/07/19 07:55:13;;;;;;;4.10;1.40;;;;;;;28.44;29.94;99368.13;4483713;31;20156;-71
2022/07/19 07:57:53;;;;;;;8.75;1.67;;;;;;;28.52;30.06;99363.41;4483633;32;20489;-71
2022/07/19 08:00:21;;;;;;;7.70;1.80;;;;;;;28.44;29.08;99361.94;4482367;32;20849;-71
2022/07/19 08:02:49;;;;;;;13.15;1.95;;;;;;;28.53;30.90;99365.88;4485432;31;20108;-71
2022/07/19 08:05:21;;;;;;;12.65;1.80;;;;;;;28.65;29.17;99363.97;4485759;31;20148;-71
2022/07/19 08:07:49;;;;;;;7.37;1.62;;;;;;;28.88;29.90;99366.81;4485836;31;20153;-71
2022/07/19 08:10:20;;;;;;;6.43;1.75;;;;;;;28.70;30.60;99365.12;4485802;31;20598;-71
2022/07/19 08:12:47;;;;;;;7.57;1.55;;;;;;;28.72;29.93;99366.53;4485736;31;20199;-71
2022/07/19 08:15:15;;;;;;;6.37;1.33;;;;;;;28.94;29.63;99366.66;4486003;31;20446;-71
2022/07/19 08:17:42;;;;;;;6.28;1.40;;;;;;;29.11;28.49;99369.34;4485435;31;20096;-71
2022/07/19 08:20:10;;;;;;;11.85;1.95;;;;;;;28.81;27.83;99367.78;4485827;31;20100;-71
2022/07/19 08:22:37;;;;;;;5.75;1.37;;;;;;;29.04;28.12;99366.00;4485615;31;20135;-71
2022/07/19 08:25:05;;;;;;;6.97;2.03;;;;;;;29.16;28.08;99365.91;4485908;31;20089;-71
2022/07/19 08:27:35;;;;;;;8.27;1.70;;;;;;;29.34;27.88;99360.34;4485515;31;20446;-71
2022/07/19 08:30:04;;;;;;;8.10;1.80;;;;;;;29.48;27.75;99358.09;4485922;31;20586;-71
2022/07/19 08:32:36;;;;;;;5.95;1.20;;;;;;;29.37;29.17;99356.31;4485738;31;20502;-71
2022/07/19 08:35:05;;;;;;;9.68;1.37;;;;;;;29.61;27.36;99356.13;4485589;32;20111;-71
2022/07/19 08:37:32;;;;;;;5.40;1.95;;;;;;;29.51;26.09;99351.41;4485635;31;20104;-71
2022/07/19 08:39:59;;;;;;;3.97;1.20;;;;;;;29.58;28.56;99345.81;4485675;31;20118;-71
2022/07/19 08:42:26;;;;;;;6.12;1.00;;;;;;;29.63;26.85;99356.69;4485832;32;20506;-71
2022/07/19 08:45:05;;;;;;;4.93;1.55;;;;;;;29.71;27.25;99359.78;4485663;31;20103;-71
2022/07/19 08:47:33;;;;;;;4.97;1.30;;;;;;;29.75;27.46;99349.28;4485320;31;21102;-71
2022/07/19 08:50:06;;;;;;;5.78;1.65;;;;;;;29.87;27.68;99347.34;4485602;31;20121;-71
2022/07/19 08:52:34;;;;;;;8.90;1.55;;;;;;;29.84;26.57;99349.72;4485539;31;20107;-71
2022/07/19 08:55:02;;;;;;;5.90;1.98;;;;;;;29.95;26.97;99345.25;4485457;31;20537;-71
2022/07/19 09:00:16;;;;;;;2.20;1.25;;;;;;;29.84;25.94;99342.44;4485504;32;20100;-71
2022/07/19 09:03:01;;;;;;;8.18;1.60;;;;;;;29.60;25.50;99349.06;4485700;31;20084;-71
2022/07/19 09:05:29;;;;;;;6.68;2.40;;;;;;;29.30;26.56;99351.09;4485406;32;20111;-71
2022/07/19 09:08:08;;;;;;;3.60;0.93;;;;;;;29.65;26.56;99344.56;4485494;31;20084;-71
2022/07/19 09:10:38;;;;;;;3.78;1.60;;;;;;;29.78;25.13;99337.19;4485335;32;20084;-71
2022/07/19 09:13:10;;;;;;;3.35;1.65;;;;;;;29.82;25.66;99341.84;4484949;31;20085;-71
2022/07/19 09:15:54;;;;;;;13.10;2.12;;;;;;;29.59;25.68;99340.16;4485520;32;20566;-71
2022/07/19 09:18:30;;;;;;;9.13;1.48;;;;;;;29.67;25.37;99347.03;4482520;31;79955;-71
2022/07/19 09:21:06;;;;;;;1.98;1.25;;;;;;;29.88;27.09;99334.66;4485451;31;20084;-71
2022/07/19 09:23:34;;;;;;;7.62;2.65;;;;;;;30.20;24.61;99342.88;4485575;31;20510;-71
2022/07/19 09:26:04;;;;;;;3.40;1.33;;;;;;;29.94;24.13;99335.53;4485207;32;20080;-71
2022/07/19 09:28:35;;;;;;;3.17;1.20;;;;;;;30.14;24.48;99335.78;4485079;31;20092;-71
2022/07/19 09:31:04;;;;;;;3.17;2.00;;;;;;;30.09;25.81;99344.63;4485408;31;20080;-71
2022/07/19 09:33:32;;;;;;;3.92;1.17;;;;;;;30.22;25.13;99340.75;4485522;31;20096;-71
2022/07/19 09:36:11;;;;;;;4.43;1.27;;;;;;;29.98;24.45;99342.06;4485262;31;20149;-71
2022/07/19 09:38:42;;;;;;;7.75;1.50;;;;;;;29.87;24.99;99339.25;4485201;32;20088;-71
2022/07/19 09:41:15;;;;;;;5.78;1.40;;;;;;;30.17;24.70;99340.66;4485341;31;20092;-71
2022/07/19 09:44:02;;;;;;;7.47;1.27;;;;;;;30.35;24.20;99328.72;4485207;31;20501;-71
2022/07/19 09:46:37;;;;;;;3.53;1.20;;;;;;;30.18;24.20;99322.59;4485149;31;20088;-71
2022/07/19 09:49:12;;;;;;;3.72;1.52;;;;;;;30.18;25.33;99323.41;4483792;32;20093;-71
2022/07/19 09:51:48;;;;;;;1.75;1.10;;;;;;;30.47;23.77;99330.50;4483896;32;20136;-71
2022/07/19 09:54:26;;;;;;;2.37;1.00;;;;;;;29.75;24.42;99327.69;4485217;31;20469;-71
2022/07/19 09:56:54;;;;;;;8.10;1.10;;;;;;;29.94;24.06;99335.53;4485236;31;20076;-71
2022/07/19 09:59:23;;;;;;;3.00;1.25;;;;;;;30.13;24.31;99322.50;4485118;31;20149;-71
2022/07/19 10:01:54;;;;;;;4.50;1.55;;;;;;;30.51;24.15;99312.69;4469481;32;20157;-71
2022/07/19 10:04:23;;;;;;;4.40;1.87;;;;;;;30.51;23.68;99312.69;4469494;32;20088;-71
2022/07/19 10:06:51;;;;;;;3.85;1.48;;;;;;;30.37;23.92;99309.53;4469413;32;20092;-71
2022/07/19 10:09:20;;;;;;;5.30;1.08;;;;;;;30.35;23.35;99317.91;4469754;32;20096;-71
2022/07/19 10:11:55;;;;;;;2.95;1.30;;;;;;;30.24;23.77;99318.88;4469375;32;20150;-71
2022/07/19 10:14:23;;;;;;;3.17;1.40;;;;;;;30.00;24.00;99323.72;4468245;32;20093;-71
2022/07/19 10:17:16;;;;;;;6.28;1.20;;;;;;;30.25;23.89;99315.09;4469201;32;20119;-71
2022/07/19 10:20:06;;;;;;;3.83;1.10;;;;;;;30.78;24.82;99321.63;4469337;32;20101;-71
2022/07/19 10:22:53;;;;;;;3.58;2.03;;;;;;;31.07;23.01;99315.09;4469265;32;20104;-71
2022/07/19 10:25:44;;;;;;;3.25;0.90;;;;;;;31.27;23.03;99315.25;4467026;32;20160;-71
2022/07/19 10:28:37;;;;;;;2.90;1.00;;;;;;;31.55;23.27;99316.00;4468397;32;20097;-71
2022/07/19 10:32:05;;;;;;;1.45;0.95;;;;;;;31.38;23.61;99310.72;4469253;32;20092;-71
2022/07/19 10:35:18;;;;;;;4.87;0.93;;;;;;;31.61;23.12;99306.84;4469405;32;20138;-71
2022/07/19 10:38:08;;;;;;;2.17;1.55;;;;;;;31.39;22.52;99301.53;4469028;32;20118;-71
2022/07/19 10:40:56;;;;;;;5.28;1.17;;;;;;;31.49;22.67;99298.06;4469262;32;20116;-71
2022/07/19 10:44:09;;;;;;;2.70;1.37;;;;;;;31.52;22.34;99300.22;4469051;32;20096;-71
2022/07/19 10:46:56;;;;;;;2.53;1.30;;;;;;;31.38;23.31;99297.19;4469085;32;20096;-71
2022/07/19 10:49:45;;;;;;;4.30;1.40;;;;;;;31.59;24.03;99290.03;4467489;32;20116;-71
2022/07/19 10:52:34;;;;;;;4.10;1.10;;;;;;;31.74;23.03;99299.31;4468931;32;20148;-71
2022/07/19 10:55:18;;;;;;;;;;;;;;;31.80;22.45;99296.34;4469207;32;20105;-71
2022/07/19 10:58:09;;;;;;;4.43;1.30;;;;;;;32.06;23.58;99295.66;4468996;32;20353;-71
2022/07/19 11:00:44;;;;;;;2.47;0.60;;;;;;;32.44;22.34;99296.31;4476474;32;20135;-71
2022/07/19 11:03:24;;;;;;;3.50;1.12;;;;;;;32.72;21.47;99290.41;4484367;31;20088;-71
2022/07/19 11:06:20;;;;;;;2.55;1.60;;;;;;;32.87;20.97;99286.88;4484553;32;20109;-71
2022/07/19 11:09:07;;;;;;;2.83;1.10;;;;;;;33.27;22.34;99286.31;4484715;32;20179;-71
2022/07/19 11:11:54;;;;;;;6.03;0.85;;;;;;;33.51;22.05;99275.66;4484196;32;20136;-71
2022/07/19 11:14:44;;;;;;;4.55;1.02;;;;;;;32.95;21.43;99271.94;4484451;32;20084;-71
2022/07/19 11:17:32;;;;;;;5.65;1.30;;;;;;;33.25;21.87;99273.81;4483734;32;20466;-71
2022/07/19 11:20:02;;;;;;;6.03;1.10;;;;;;;33.41;21.04;99274.59;4484539;31;20088;-71
2022/07/19 11:22:41;;;;;;;1.98;1.30;;;;;;;33.00;22.24;99271.13;4484115;31;20093;-71
2022/07/19 11:25:09;;;;;;;2.12;1.30;;;;;;;33.02;22.15;99263.50;4484228;31;20406;-71
2022/07/19 11:27:40;;;;;;;3.80;1.00;;;;;;;32.15;22.49;99270.47;4483819;31;20124;-71
2022/07/19 11:30:08;;;;;;;8.63;1.20;;;;;;;32.32;22.01;99274.84;4484186;31;20111;-71
2022/07/19 11:32:35;;;;;;;2.47;1.02;;;;;;;32.37;22.08;99269.44;4483824;31;20452;-71
2022/07/19 11:35:07;;;;;;;2.83;1.45;;;;;;;32.35;22.61;99272.41;4483848;31;20113;-71
2022/07/19 11:37:38;;;;;;;6.55;1.10;;;;;;;32.53;22.47;99268.38;4485500;32;20149;-71
2022/07/19 11:40:07;;;;;;;6.05;1.20;;;;;;;32.69;21.12;99255.66;4486087;31;20084;-71
2022/07/19 11:42:39;;;;;;;4.78;1.00;;;;;;;32.78;22.80;99257.81;4486000;32;20096;-71
2022/07/19 11:45:27;;;;;;;1.10;0.90;;;;;;;33.12;21.47;99247.22;4486211;32;20447;-71
2022/07/19 11:47:56;;;;;;;1.85;0.90;;;;;;;33.04;22.39;99240.44;4484401;32;20430;-71
2022/07/19 11:50:26;;;;;;;2.50;1.40;;;;;;;33.07;21.51;99237.16;4485935;31;20160;-71